Time;durP1;ratioP1;P1;durP2;ratioP2;P2;SDS_P1;SDS_P2;PMS_P1;PMS_P2;Temp;Humidity;BMP_temperature;BMP_pressure;BME280_temperature;BME280_humidity;BME280_pressure;Samples;Min_cycle;Max_cycle;Signal;HPM_P1;HPM_P2
2023/06/22 00:00:52;;;;;;;15.40;14.10;;;;;;;;;;107993;272;42111;-36
2023/06/22 00:03:38;;;;;;;16.00;14.60;;;;;;;;;;108039;269;38767;-36
2023/06/22 00:06:12;;;;;;;15.80;14.50;;;;;;;;;;107962;269;39652;-36
2023/06/22 00:08:45;;;;;;;15.70;14.40;;;;;;;;;;107986;276;42718;-36
2023/06/22 00:11:20;;;;;;;15.20;14.00;;;;;;;;;;108000;272;41938;-37
2023/06/22 00:13:53;;;;;;;15.10;13.80;;;;;;;;;;107998;276;38604;-37
2023/06/22 00:16:26;;;;;;;15.50;14.20;;;;;;;;;;107943;269;39709;-36
2023/06/22 00:19:02;;;;;;;15.90;14.50;;;;;;;;;;108001;269;42840;-37
2023/06/22 00:21:38;;;;;;;15.60;14.40;;;;;;;;;;108036;276;42271;-37
2023/06/22 00:24:14;;;;;;;15.30;14.10;;;;;;;;;;108026;273;38715;-37
2023/06/22 00:26:50;;;;;;;16.10;14.70;;;;;;;;;;107944;273;39430;-37
2023/06/22 00:29:24;;;;;;;15.60;14.30;;;;;;;;;;107988;269;42932;-37
2023/06/22 00:31:58;;;;;;;16.10;14.80;;;;;;;;;;108029;276;42464;-37
2023/06/22 00:34:31;;;;;;;15.90;14.60;;;;;;;;;;108008;273;38516;-37
2023/06/22 00:37:04;;;;;;;15.50;14.30;;;;;;;;;;107961;273;39650;-37
2023/06/22 00:39:38;;;;;;;15.80;14.50;;;;;;;;;;108008;272;42863;-37
2023/06/22 00:42:12;;;;;;;15.90;14.50;;;;;;;;;;108012;272;42023;-37
2023/06/22 00:44:45;;;;;;;16.30;15.00;;;;;;;;;;107995;276;38802;-37
2023/06/22 00:47:20;;;;;;;15.80;14.50;;;;;;;;;;107964;269;39791;-35
2023/06/22 00:49:56;;;;;;;15.90;14.50;;;;;;;;;;107993;276;42853;-36
2023/06/22 00:52:32;;;;;;;16.30;15.00;;;;;;;;;;107976;273;41982;-37
2023/06/22 00:55:08;;;;;;;16.10;14.80;;;;;;;;;;108000;269;38762;-36
2023/06/22 00:57:43;;;;;;;16.00;14.70;;;;;;;;;;107978;273;39690;-37
2023/06/22 01:00:19;;;;;;;16.20;14.90;;;;;;;;;;107980;276;42835;-37
2023/06/22 01:02:54;;;;;;;16.00;14.70;;;;;;;;;;108000;276;42439;-37
2023/06/22 01:05:30;;;;;;;15.70;14.40;;;;;;;;;;107999;269;38840;-36
2023/06/22 01:08:17;;;;;;;15.80;14.50;;;;;;;;;;107985;269;40836;-36
2023/06/22 01:10:58;;;;;;;16.40;15.00;;;;;;;;;;108011;276;43019;-37
2023/06/22 01:13:42;;;;;;;16.50;15.20;;;;;;;;;;107986;269;41962;-37
2023/06/22 01:16:21;;;;;;;15.50;14.20;;;;;;;;;;107976;269;38774;-36
2023/06/22 01:18:58;;;;;;;15.50;14.20;;;;;;;;;;108013;269;39688;-37
2023/06/22 01:21:36;;;;;;;15.40;14.10;;;;;;;;;;108008;272;42818;-37
2023/06/22 01:24:23;;;;;;;15.80;14.40;;;;;;;;;;107975;272;43360;-36
2023/06/22 01:27:14;;;;;;;15.40;14.20;;;;;;;;;;108007;272;39792;-36
2023/06/22 01:29:49;;;;;;;15.60;14.30;;;;;;;;;;108033;272;46929;-36
2023/06/22 01:32:24;;;;;;;15.30;14.10;;;;;;;;;;108000;273;42638;-36
2023/06/22 01:34:58;;;;;;;15.50;14.10;;;;;;;;;;107970;276;42204;-36
2023/06/22 01:37:34;;;;;;;15.50;14.10;;;;;;;;;;107867;276;174960;-36
2023/06/22 01:40:12;;;;;;;15.60;14.30;;;;;;;;;;108010;269;47002;-36
2023/06/22 01:42:45;;;;;;;15.40;14.20;;;;;;;;;;107986;276;42634;-36
2023/06/22 01:45:22;;;;;;;15.40;14.20;;;;;;;;;;108023;269;42318;-37
2023/06/22 01:47:56;;;;;;;16.10;14.80;;;;;;;;;;107889;273;38703;-37
2023/06/22 01:50:30;;;;;;;15.80;14.50;;;;;;;;;;108023;273;39745;-37
2023/06/22 01:53:05;;;;;;;15.60;14.40;;;;;;;;;;107978;273;42722;-37
2023/06/22 01:55:40;;;;;;;15.60;14.40;;;;;;;;;;108003;269;42370;-36
2023/06/22 01:58:13;;;;;;;15.80;14.50;;;;;;;;;;107282;269;891554;-37
2023/06/22 02:00:54;;;;;;;16.30;15.00;;;;;;;;;;107880;276;175402;-36
2023/06/22 02:03:36;;;;;;;16.40;15.10;;;;;;;;;;108004;269;42995;-38
2023/06/22 02:06:18;;;;;;;16.20;14.90;;;;;;;;;;107985;269;42198;-36
2023/06/22 02:08:56;;;;;;;16.40;15.10;;;;;;;;;;107939;276;38787;-36
2023/06/22 02:11:31;;;;;;;16.10;14.80;;;;;;;;;;108009;273;39813;-36
2023/06/22 02:14:07;;;;;;;16.90;15.50;;;;;;;;;;107959;276;42831;-36
2023/06/22 02:16:40;;;;;;;16.90;15.50;;;;;;;;;;107986;273;42306;-37
2023/06/22 02:19:16;;;;;;;16.50;15.20;;;;;;;;;;107954;269;39283;-36
2023/06/22 02:21:49;;;;;;;17.10;15.70;;;;;;;;;;107951;273;40900;-37
2023/06/22 02:24:23;;;;;;;17.00;15.60;;;;;;;;;;107960;273;42606;-36
2023/06/22 02:26:57;;;;;;;17.50;16.10;;;;;;;;;;107973;273;41961;-36
2023/06/22 02:29:31;;;;;;;17.20;15.80;;;;;;;;;;107859;269;175434;-36
2023/06/22 02:32:06;;;;;;;17.60;16.20;;;;;;;;;;107972;276;39806;-36
2023/06/22 02:34:40;;;;;;;17.60;16.20;;;;;;;;;;108011;269;42822;-36
2023/06/22 02:37:15;;;;;;;19.10;17.50;;;;;;;;;;108001;269;42222;-36
2023/06/22 02:39:48;;;;;;;19.20;17.60;;;;;;;;;;107971;269;38752;-36
2023/06/22 02:42:24;;;;;;;19.10;17.50;;;;;;;;;;107985;273;39809;-36
2023/06/22 02:44:59;;;;;;;19.50;17.90;;;;;;;;;;108018;273;42910;-36
2023/06/22 02:47:32;;;;;;;20.00;18.40;;;;;;;;;;107976;276;42344;-36
2023/06/22 02:50:08;;;;;;;20.10;18.40;;;;;;;;;;107964;276;39007;-36
2023/06/22 02:52:41;;;;;;;20.10;18.50;;;;;;;;;;107985;269;39703;-36
2023/06/22 02:55:15;;;;;;;20.90;19.20;;;;;;;;;;107974;273;42646;-36
2023/06/22 02:57:52;;;;;;;21.30;19.50;;;;;;;;;;107958;276;42228;-36
2023/06/22 03:00:30;;;;;;;21.30;19.50;;;;;;;;;;108015;276;38633;-37
2023/06/22 03:03:05;;;;;;;21.50;19.80;;;;;;;;;;107971;276;39717;-36
2023/06/22 03:05:40;;;;;;;21.70;19.90;;;;;;;;;;107982;273;42824;-36
2023/06/22 03:08:14;;;;;;;22.50;20.70;;;;;;;;;;107991;269;42064;-36
2023/06/22 03:10:48;;;;;;;23.00;21.10;;;;;;;;;;107999;273;38532;-37
2023/06/22 03:13:21;;;;;;;23.00;21.00;;;;;;;;;;107971;272;39804;-36
2023/06/22 03:15:54;;;;;;;23.00;21.10;;;;;;;;;;107981;273;42651;-36
2023/06/22 03:18:29;;;;;;;24.60;22.50;;;;;;;;;;107982;273;42459;-36
2023/06/22 03:21:02;;;;;;;23.80;21.80;;;;;;;;;;107994;273;39918;-36
2023/06/22 03:23:37;;;;;;;23.40;21.40;;;;;;;;;;107960;273;39514;-37
2023/06/22 03:26:11;;;;;;;23.70;21.70;;;;;;;;;;107994;276;43933;-36
2023/06/22 03:28:47;;;;;;;24.20;22.20;;;;;;;;;;108010;269;41959;-36
2023/06/22 03:31:21;;;;;;;24.40;22.30;;;;;;;;;;107960;276;40023;-37
2023/06/22 03:33:58;;;;;;;24.00;21.90;;;;;;;;;;108024;276;39691;-36
2023/06/22 03:36:31;;;;;;;24.80;22.80;;;;;;;;;;107995;276;42872;-36
2023/06/22 03:39:05;;;;;;;24.80;22.70;;;;;;;;;;107995;276;42600;-36
2023/06/22 03:41:39;;;;;;;24.80;22.70;;;;;;;;;;107998;273;39893;-37
2023/06/22 03:44:15;;;;;;;24.90;22.80;;;;;;;;;;107996;272;39567;-36
2023/06/22 03:46:49;;;;;;;25.60;23.50;;;;;;;;;;107857;269;175162;-37
2023/06/22 03:49:22;;;;;;;24.30;22.20;;;;;;;;;;107975;276;42136;-36
2023/06/22 03:51:56;;;;;;;25.30;23.10;;;;;;;;;;107971;272;38761;-36
2023/06/22 03:54:29;;;;;;;25.40;23.20;;;;;;;;;;108028;273;39703;-36
2023/06/22 03:57:02;;;;;;;25.80;23.70;;;;;;;;;;108037;269;42945;-37
2023/06/22 03:59:38;;;;;;;25.00;22.90;;;;;;;;;;108072;269;42357;-37
2023/06/22 04:02:11;;;;;;;25.50;23.40;;;;;;;;;;107966;273;38869;-36
2023/06/22 04:04:45;;;;;;;24.80;22.70;;;;;;;;;;108052;276;39657;-36
2023/06/22 04:07:19;;;;;;;25.30;23.20;;;;;;;;;;108004;276;43052;-36
2023/06/22 04:09:52;;;;;;;25.10;22.90;;;;;;;;;;107985;269;42222;-36
2023/06/22 04:12:27;;;;;;;24.50;22.50;;;;;;;;;;107960;269;38634;-36
2023/06/22 04:15:00;;;;;;;24.40;22.40;;;;;;;;;;108009;276;39572;-36
2023/06/22 04:17:34;;;;;;;24.30;22.30;;;;;;;;;;107888;269;174414;-36
2023/06/22 04:20:10;;;;;;;25.10;23.00;;;;;;;;;;107880;276;175456;-36
2023/06/22 04:22:43;;;;;;;24.20;22.20;;;;;;;;;;107982;276;38563;-37
2023/06/22 04:25:17;;;;;;;24.30;22.30;;;;;;;;;;107986;276;39407;-36
2023/06/22 04:27:50;;;;;;;24.90;22.80;;;;;;;;;;107993;276;42850;-36
2023/06/22 04:30:24;;;;;;;24.00;22.00;;;;;;;;;;108003;276;43602;-36
2023/06/22 04:32:57;;;;;;;24.20;22.10;;;;;;;;;;107890;276;175449;-37
2023/06/22 04:35:31;;;;;;;23.70;21.70;;;;;;;;;;107976;272;39839;-36
2023/06/22 04:38:06;;;;;;;24.30;22.10;;;;;;;;;;107989;272;42829;-36
2023/06/22 04:40:41;;;;;;;24.10;22.00;;;;;;;;;;108002;269;43359;-37
2023/06/22 04:43:18;;;;;;;23.00;21.10;;;;;;;;;;107926;276;39909;-36
2023/06/22 04:45:52;;;;;;;23.10;21.20;;;;;;;;;;108012;276;39616;-37
2023/06/22 04:48:32;;;;;;;24.20;22.10;;;;;;;;;;107503;276;526562;-37
2023/06/22 04:51:08;;;;;;;23.00;21.00;;;;;;;;;;107961;276;42356;-37
2023/06/22 04:53:44;;;;;;;22.80;20.90;;;;;;;;;;107917;277;40118;-37
2023/06/22 04:56:21;;;;;;;22.20;20.20;;;;;;;;;;107983;276;39951;-37
2023/06/22 04:59:04;;;;;;;22.20;20.30;;;;;;;;;;107986;272;43021;-42
2023/06/22 05:01:39;;;;;;;23.80;21.60;;;;;;;;;;107902;269;43331;-34
2023/06/22 05:04:16;;;;;;;21.80;19.80;;;;;;;;;;108013;273;44643;-35
2023/06/22 05:06:50;;;;;;;21.60;19.60;;;;;;;;;;107815;278;39475;-35
2023/06/22 05:09:26;;;;;;;21.80;19.90;;;;;;;;;;107960;272;42769;-37
2023/06/22 05:12:04;;;;;;;23.00;20.80;;;;;;;;;;107876;269;42298;-38
2023/06/22 05:14:45;;;;;;;21.50;19.50;;;;;;;;;;108015;276;47207;-38
2023/06/22 05:17:21;;;;;;;21.50;19.60;;;;;;;;;;108033;276;39421;-38
2023/06/22 05:19:56;;;;;;;21.50;19.40;;;;;;;;;;107833;269;175521;-35
2023/06/22 05:22:29;;;;;;;21.40;19.30;;;;;;;;;;107935;269;42253;-39
2023/06/22 05:25:09;;;;;;;22.20;20.20;;;;;;;;;;107909;277;38564;-37
2023/06/22 05:27:43;;;;;;;20.70;18.70;;;;;;;;;;107906;270;39683;-38
2023/06/22 05:30:18;;;;;;;21.30;19.30;;;;;;;;;;107809;277;175493;-37
2023/06/22 05:32:54;;;;;;;21.90;19.80;;;;;;;;;;107864;278;42108;-37
2023/06/22 05:35:29;;;;;;;19.60;17.80;;;;;;;;;;107915;269;38818;-37
2023/06/22 05:38:02;;;;;;;20.10;18.30;;;;;;;;;;107953;269;39712;-38
2023/06/22 05:40:35;;;;;;;19.90;18.00;;;;;;;;;;107900;277;42858;-37
2023/06/22 05:43:10;;;;;;;19.30;17.50;;;;;;;;;;107892;277;42662;-37
2023/06/22 05:45:46;;;;;;;19.90;18.10;;;;;;;;;;107970;277;38818;-37
2023/06/22 05:48:21;;;;;;;21.00;19.00;;;;;;;;;;107967;277;39437;-38
2023/06/22 05:51:00;;;;;;;19.90;18.00;;;;;;;;;;107979;269;42881;-37
2023/06/22 05:53:33;;;;;;;19.40;17.60;;;;;;;;;;107950;277;41964;-38
2023/06/22 05:56:10;;;;;;;20.10;18.20;;;;;;;;;;107982;273;38694;-38
2023/06/22 05:58:46;;;;;;;18.70;16.90;;;;;;;;;;107969;273;40975;-38
2023/06/22 06:01:21;;;;;;;18.70;17.00;;;;;;;;;;108002;269;42845;-38
2023/06/22 06:03:57;;;;;;;19.30;17.40;;;;;;;;;;107949;269;43325;-37
2023/06/22 06:06:31;;;;;;;19.60;17.70;;;;;;;;;;107935;273;38796;-38
2023/06/22 06:09:07;;;;;;;18.20;16.60;;;;;;;;;;107971;269;41441;-38
2023/06/22 06:11:41;;;;;;;17.60;16.00;;;;;;;;;;107982;275;42588;-37
2023/06/22 06:14:17;;;;;;;17.60;15.90;;;;;;;;;;107917;269;41963;-39
2023/06/22 06:16:52;;;;;;;17.10;15.50;;;;;;;;;;107972;277;38897;-39
2023/06/22 06:19:27;;;;;;;17.80;16.10;;;;;;;;;;107933;275;39659;-39
2023/06/22 06:22:02;;;;;;;16.30;14.70;;;;;;;;;;107948;269;42657;-39
2023/06/22 06:24:39;;;;;;;17.00;15.40;;;;;;;;;;107913;275;41914;-37
2023/06/22 06:27:12;;;;;;;16.40;14.70;;;;;;;;;;107966;273;38866;-38
2023/06/22 06:29:48;;;;;;;15.70;14.10;;;;;;;;;;107964;269;39669;-38
2023/06/22 06:32:22;;;;;;;16.20;14.60;;;;;;;;;;107973;273;42674;-38
2023/06/22 06:34:55;;;;;;;15.70;14.20;;;;;;;;;;107922;269;42090;-38
2023/06/22 06:37:29;;;;;;;15.60;14.10;;;;;;;;;;107982;269;38958;-39
2023/06/22 06:40:03;;;;;;;14.70;13.30;;;;;;;;;;107947;277;39684;-38
2023/06/22 06:42:37;;;;;;;15.30;13.80;;;;;;;;;;107963;277;43776;-37
2023/06/22 06:45:17;;;;;;;14.30;12.90;;;;;;;;;;107910;277;43212;-37
2023/06/22 06:47:51;;;;;;;14.20;12.80;;;;;;;;;;108001;277;39797;-36
2023/06/22 06:50:27;;;;;;;14.60;13.10;;;;;;;;;;107990;269;39430;-38
2023/06/22 06:53:01;;;;;;;13.90;12.50;;;;;;;;;;107943;269;42661;-38
2023/06/22 06:55:34;;;;;;;14.70;13.30;;;;;;;;;;107896;269;41961;-38
2023/06/22 06:58:09;;;;;;;16.70;14.20;;;;;;;;;;107936;273;39823;-38
2023/06/22 07:00:43;;;;;;;15.40;13.80;;;;;;;;;;107978;269;39726;-39
2023/06/22 07:03:18;;;;;;;15.20;13.50;;;;;;;;;;108006;277;42985;-35
2023/06/22 07:05:53;;;;;;;14.60;13.10;;;;;;;;;;107931;277;42117;-37
2023/06/22 07:08:30;;;;;;;14.50;13.00;;;;;;;;;;107976;273;38598;-37
2023/06/22 07:11:05;;;;;;;13.90;12.60;;;;;;;;;;107972;273;40752;-37
2023/06/22 07:13:38;;;;;;;13.30;12.00;;;;;;;;;;107872;277;43008;-38
2023/06/22 07:16:11;;;;;;;12.70;11.40;;;;;;;;;;107951;273;42486;-37
2023/06/22 07:18:44;;;;;;;12.90;11.60;;;;;;;;;;107942;277;38747;-37
2023/06/22 07:21:17;;;;;;;11.90;10.80;;;;;;;;;;107858;277;39662;-37
2023/06/22 07:23:52;;;;;;;12.30;11.00;;;;;;;;;;107977;273;42940;-40
2023/06/22 07:26:27;;;;;;;12.30;11.00;;;;;;;;;;107934;273;42243;-36
2023/06/22 07:29:00;;;;;;;12.00;10.80;;;;;;;;;;107988;277;38715;-36
2023/06/22 07:31:34;;;;;;;11.40;10.20;;;;;;;;;;107993;277;40992;-37
2023/06/22 07:34:11;;;;;;;10.50;9.40;;;;;;;;;;107970;277;42954;-39
2023/06/22 07:36:47;;;;;;;9.70;8.80;;;;;;;;;;107927;277;41914;-39
2023/06/22 07:39:25;;;;;;;9.70;8.60;;;;;;;;;;107355;277;892350;-38
2023/06/22 07:42:02;;;;;;;9.80;8.80;;;;;;;;;;107985;277;39634;-36
2023/06/22 07:44:36;;;;;;;10.20;9.10;;;;;;;;;;107980;273;43131;-37
2023/06/22 07:47:13;;;;;;;9.50;8.20;;;;;;;;;;107948;269;41865;-36
2023/06/22 07:49:47;;;;;;;9.10;8.00;;;;;;;;;;107999;273;39832;-36
2023/06/22 07:52:20;;;;;;;10.10;7.80;;;;;;;;;;107882;277;175443;-36
2023/06/22 07:54:54;;;;;;;8.40;7.20;;;;;;;;;;107999;269;42635;-37
2023/06/22 07:57:33;;;;;;;9.00;7.80;;;;;;;;;;107989;273;42144;-37
2023/06/22 08:00:13;;;;;;;8.10;7.20;;;;;;;;;;107971;273;40102;-35
2023/06/22 08:02:47;;;;;;;7.80;7.00;;;;;;;;;;107936;273;39614;-35
2023/06/22 08:05:21;;;;;;;8.10;7.00;;;;;;;;;;107911;269;42887;-36
2023/06/22 08:07:56;;;;;;;8.10;7.00;;;;;;;;;;107916;273;48105;-35
2023/06/22 08:10:30;;;;;;;8.30;7.40;;;;;;;;;;107698;277;175441;-39
2023/06/22 08:13:08;;;;;;;9.00;7.00;;;;;;;;;;107919;273;39645;-39
2023/06/22 08:15:47;;;;;;;8.10;6.50;;;;;;;;;;107799;269;175442;-39
2023/06/22 08:18:31;;;;;;;7.90;6.80;;;;;;;;;;107901;277;48135;-39
2023/06/22 08:21:05;;;;;;;7.20;6.10;;;;;;;;;;107823;273;39789;-40
2023/06/22 08:23:44;;;;;;;7.90;6.30;;;;;;;;;;107924;273;39840;-39
2023/06/22 08:26:20;;;;;;;7.90;6.50;;;;;;;;;;107931;269;42848;-39
2023/06/22 08:28:54;;;;;;;8.40;5.90;;;;;;;;;;108009;277;42253;-39
2023/06/22 08:31:27;;;;;;;7.80;6.20;;;;;;;;;;107961;269;38776;-39
2023/06/22 08:34:02;;;;;;;7.70;5.80;;;;;;;;;;107975;269;39580;-39
2023/06/22 08:36:41;;;;;;;7.40;5.80;;;;;;;;;;107879;273;42815;-39
2023/06/22 08:39:14;;;;;;;7.10;5.60;;;;;;;;;;107973;277;41920;-40
2023/06/22 08:41:48;;;;;;;6.50;5.10;;;;;;;;;;107960;277;38777;-39
2023/06/22 08:44:22;;;;;;;6.30;5.20;;;;;;;;;;107947;269;39393;-38
2023/06/22 08:46:56;;;;;;;6.50;5.10;;;;;;;;;;107890;273;42862;-38
2023/06/22 08:49:30;;;;;;;6.00;4.70;;;;;;;;;;107973;269;43261;-38
2023/06/22 08:52:03;;;;;;;6.70;5.00;;;;;;;;;;107989;269;38927;-38
2023/06/22 08:54:38;;;;;;;6.40;4.80;;;;;;;;;;107992;273;39692;-38
2023/06/22 08:57:12;;;;;;;7.70;5.10;;;;;;;;;;107938;273;42885;-38
2023/06/22 08:59:46;;;;;;;6.50;4.80;;;;;;;;;;108008;269;41898;-38
2023/06/22 09:02:19;;;;;;;6.10;4.80;;;;;;;;;;107905;273;175458;-39
2023/06/22 09:04:55;;;;;;;6.00;4.50;;;;;;;;;;107974;269;39476;-39
2023/06/22 09:07:29;;;;;;;6.80;4.70;;;;;;;;;;107957;269;42730;-38
2023/06/22 09:10:04;;;;;;;6.40;4.70;;;;;;;;;;107973;269;42368;-38
2023/06/22 09:12:38;;;;;;;6.70;4.40;;;;;;;;;;107928;277;38818;-39
2023/06/22 09:15:14;;;;;;;6.20;4.40;;;;;;;;;;107935;273;40671;-38
2023/06/22 09:18:02;;;;;;;5.80;4.70;;;;;;;;;;107925;273;43991;-38
2023/06/22 09:20:36;;;;;;;6.10;4.40;;;;;;;;;;107965;269;41866;-38
2023/06/22 09:23:09;;;;;;;6.10;4.50;;;;;;;;;;107972;277;38758;-38
2023/06/22 09:25:43;;;;;;;5.70;4.40;;;;;;;;;;107949;269;39826;-38
2023/06/22 09:28:17;;;;;;;6.20;4.40;;;;;;;;;;107901;277;42852;-38
2023/06/22 09:30:51;;;;;;;5.80;4.40;;;;;;;;;;107977;273;42253;-38
2023/06/22 09:33:24;;;;;;;5.70;4.30;;;;;;;;;;108000;277;39909;-39
2023/06/22 09:35:57;;;;;;;6.40;4.40;;;;;;;;;;108005;277;39756;-38
2023/06/22 09:38:30;;;;;;;6.20;4.60;;;;;;;;;;107836;279;44036;-38
2023/06/22 09:41:04;;;;;;;5.70;4.30;;;;;;;;;;107892;269;175418;-38
2023/06/22 09:43:37;;;;;;;7.70;4.40;;;;;;;;;;108024;273;38927;-38
2023/06/22 09:46:11;;;;;;;5.70;4.40;;;;;;;;;;108029;273;39455;-38
2023/06/22 09:48:45;;;;;;;6.80;4.50;;;;;;;;;;103494;269;3011210;-38
2023/06/22 09:51:19;;;;;;;7.20;4.90;;;;;;;;;;108020;273;23824;-38
2023/06/22 09:53:53;;;;;;;6.10;4.70;;;;;;;;;;108029;277;39935;-38
2023/06/22 09:56:29;;;;;;;6.10;4.70;;;;;;;;;;108030;277;39655;-38
2023/06/22 09:59:03;;;;;;;6.20;4.60;;;;;;;;;;107972;277;44162;-38
2023/06/22 10:01:50;;;;;;;6.50;4.70;;;;;;;;;;107984;277;42535;-38
2023/06/22 10:04:24;;;;;;;6.20;4.80;;;;;;;;;;107996;269;38873;-38
2023/06/22 10:06:58;;;;;;;6.10;4.90;;;;;;;;;;107982;277;39696;-38
2023/06/22 10:09:31;;;;;;;5.80;4.80;;;;;;;;;;107948;273;42756;-38
2023/06/22 10:12:06;;;;;;;6.70;5.00;;;;;;;;;;107964;277;42138;-38
2023/06/22 10:14:39;;;;;;;6.50;4.60;;;;;;;;;;108035;273;38880;-38
2023/06/22 10:17:12;;;;;;;6.10;4.90;;;;;;;;;;107912;275;39822;-38
2023/06/22 10:19:47;;;;;;;6.20;4.70;;;;;;;;;;107906;277;43939;-38
2023/06/22 10:22:22;;;;;;;5.70;4.60;;;;;;;;;;107966;269;42117;-39
2023/06/22 10:24:55;;;;;;;5.70;4.30;;;;;;;;;;107947;272;38980;-40
2023/06/22 10:27:29;;;;;;;5.80;4.50;;;;;;;;;;107998;276;39470;-41
2023/06/22 10:30:02;;;;;;;6.80;4.90;;;;;;;;;;107953;273;42898;-40
2023/06/22 10:32:38;;;;;;;6.80;5.00;;;;;;;;;;107961;276;42474;-39
2023/06/22 10:35:16;;;;;;;6.20;5.10;;;;;;;;;;107992;273;38586;-41
2023/06/22 10:37:51;;;;;;;6.30;5.10;;;;;;;;;;107947;269;39430;-38
2023/06/22 10:40:25;;;;;;;6.20;4.70;;;;;;;;;;107957;269;43003;-40
2023/06/22 10:43:01;;;;;;;6.50;4.90;;;;;;;;;;107934;273;42119;-38
2023/06/22 10:45:34;;;;;;;6.30;5.00;;;;;;;;;;107854;273;175429;-39
2023/06/22 10:48:09;;;;;;;7.20;5.20;;;;;;;;;;108000;269;39797;-38
2023/06/22 10:50:44;;;;;;;7.10;5.10;;;;;;;;;;107984;277;42892;-39
2023/06/22 10:53:17;;;;;;;5.90;5.10;;;;;;;;;;107969;276;43344;-39
2023/06/22 10:55:53;;;;;;;5.90;4.90;;;;;;;;;;108003;272;40106;-39
2023/06/22 10:58:30;;;;;;;6.50;4.90;;;;;;;;;;107959;276;39725;-38
2023/06/22 11:01:05;;;;;;;6.50;4.80;;;;;;;;;;107954;276;43003;-38
2023/06/22 11:03:38;;;;;;;6.60;4.70;;;;;;;;;;107849;278;41903;-39
2023/06/22 11:06:14;;;;;;;6.10;4.80;;;;;;;;;;108003;273;38894;-39
2023/06/22 11:08:50;;;;;;;7.20;4.90;;;;;;;;;;107952;269;39411;-38
2023/06/22 11:11:39;;;;;;;6.30;5.00;;;;;;;;;;108048;276;49808;-39
2023/06/22 11:14:16;;;;;;;7.20;4.90;;;;;;;;;;107998;269;42156;-38
2023/06/22 11:16:50;;;;;;;6.30;5.10;;;;;;;;;;107867;276;39855;-40
2023/06/22 11:19:26;;;;;;;6.40;5.00;;;;;;;;;;107866;271;40837;-41
2023/06/22 11:21:59;;;;;;;6.90;5.20;;;;;;;;;;107893;269;49695;-40
2023/06/22 11:24:35;;;;;;;6.70;5.40;;;;;;;;;;107925;276;42204;-40
2023/06/22 11:27:13;;;;;;;7.30;5.40;;;;;;;;;;107960;269;38515;-40
2023/06/22 11:29:46;;;;;;;6.60;5.70;;;;;;;;;;107995;269;39738;-39
2023/06/22 11:32:21;;;;;;;7.30;5.30;;;;;;;;;;107879;273;175381;-39
2023/06/22 11:34:54;;;;;;;7.10;5.30;;;;;;;;;;108018;276;44407;-39
2023/06/22 11:37:27;;;;;;;7.60;5.50;;;;;;;;;;107996;276;40010;-38
2023/06/22 11:40:08;;;;;;;7.10;5.30;;;;;;;;;;107934;276;39669;-38
2023/06/22 11:42:46;;;;;;;6.30;5.00;;;;;;;;;;108133;272;49110;-39
2023/06/22 11:45:20;;;;;;;6.60;5.10;;;;;;;;;;107941;277;42096;-39
2023/06/22 11:47:58;;;;;;;6.20;5.00;;;;;;;;;;107960;269;38866;-39
2023/06/22 11:50:39;;;;;;;6.10;5.00;;;;;;;;;;107876;269;39489;-38
2023/06/22 11:53:17;;;;;;;6.10;4.80;;;;;;;;;;107822;278;43257;-38
2023/06/22 11:55:51;;;;;;;6.40;5.20;;;;;;;;;;108008;272;44331;-38
2023/06/22 11:58:24;;;;;;;5.90;4.80;;;;;;;;;;107908;272;191673;-38
2023/06/22 12:00:59;;;;;;;5.90;4.90;;;;;;;;;;107960;276;39678;-38
2023/06/22 12:03:33;;;;;;;6.70;5.00;;;;;;;;;;107818;276;175041;-37
2023/06/22 12:06:06;;;;;;;6.30;4.90;;;;;;;;;;107976;272;41873;-39
2023/06/22 12:08:40;;;;;;;6.20;5.10;;;;;;;;;;107924;270;38929;-39
2023/06/22 12:11:14;;;;;;;6.40;5.10;;;;;;;;;;107897;276;39636;-39
2023/06/22 12:13:49;;;;;;;6.20;5.00;;;;;;;;;;107974;277;44049;-38
2023/06/22 12:16:25;;;;;;;6.00;4.80;;;;;;;;;;107924;273;43411;-39
2023/06/22 12:18:58;;;;;;;5.80;4.90;;;;;;;;;;107953;269;39796;-36
2023/06/22 12:21:35;;;;;;;5.90;5.00;;;;;;;;;;107892;269;39693;-36
2023/06/22 12:24:08;;;;;;;6.10;4.60;;;;;;;;;;107985;276;42941;-36
2023/06/22 12:26:42;;;;;;;6.00;4.90;;;;;;;;;;107943;273;42087;-37
2023/06/22 12:29:15;;;;;;;6.30;4.80;;;;;;;;;;107959;269;38794;-37
2023/06/22 12:31:49;;;;;;;6.10;4.80;;;;;;;;;;107951;272;39681;-37
2023/06/22 12:34:25;;;;;;;6.60;5.20;;;;;;;;;;107887;270;43998;-38
2023/06/22 12:36:58;;;;;;;6.70;5.20;;;;;;;;;;107967;276;42135;-38
2023/06/22 12:39:32;;;;;;;6.50;5.10;;;;;;;;;;107848;277;175028;-36
2023/06/22 12:42:08;;;;;;;6.20;5.10;;;;;;;;;;107965;276;39505;-38
2023/06/22 12:44:43;;;;;;;6.40;4.90;;;;;;;;;;107315;269;891654;-35
2023/06/22 12:47:16;;;;;;;6.20;5.10;;;;;;;;;;108043;272;42080;-36
2023/06/22 12:49:49;;;;;;;7.10;5.30;;;;;;;;;;107465;276;503648;-38
2023/06/22 12:52:24;;;;;;;6.90;5.30;;;;;;;;;;107891;276;39834;-39
2023/06/22 12:54:59;;;;;;;6.40;5.30;;;;;;;;;;107995;272;42957;-37
2023/06/22 12:57:34;;;;;;;7.00;5.40;;;;;;;;;;107990;269;41867;-40
2023/06/22 13:00:14;;;;;;;5.80;4.90;;;;;;;;;;107890;269;38876;-42
2023/06/22 13:02:57;;;;;;;6.60;5.40;;;;;;;;;;107878;269;39444;-41
2023/06/22 13:05:34;;;;;;;7.10;5.20;;;;;;;;;;108032;269;44188;-41
2023/06/22 13:08:08;;;;;;;6.50;5.50;;;;;;;;;;107919;269;41864;-41
2023/06/22 13:10:45;;;;;;;6.70;5.30;;;;;;;;;;107982;276;38671;-40
2023/06/22 13:13:19;;;;;;;6.20;5.20;;;;;;;;;;107949;272;39752;-41
2023/06/22 13:15:53;;;;;;;6.00;5.40;;;;;;;;;;107337;269;891715;-40
2023/06/22 13:18:27;;;;;;;6.10;5.00;;;;;;;;;;107977;272;42142;-40
2023/06/22 13:21:00;;;;;;;6.10;5.10;;;;;;;;;;108044;274;38790;-41
2023/06/22 13:23:37;;;;;;;6.30;4.80;;;;;;;;;;107935;276;39907;-40
2023/06/22 13:26:14;;;;;;;5.50;4.80;;;;;;;;;;108017;276;42885;-40
2023/06/22 13:28:49;;;;;;;6.30;4.90;;;;;;;;;;108015;269;41889;-41
2023/06/22 13:31:22;;;;;;;5.90;4.80;;;;;;;;;;108030;269;40036;-40
2023/06/22 13:33:58;;;;;;;5.60;4.70;;;;;;;;;;107976;276;40989;-41
2023/06/22 13:36:32;;;;;;;6.20;5.20;;;;;;;;;;108018;276;44158;-41
2023/06/22 13:39:07;;;;;;;6.00;4.80;;;;;;;;;;108003;269;43069;-41
2023/06/22 13:41:43;;;;;;;5.70;4.70;;;;;;;;;;107976;276;38587;-41
2023/06/22 13:44:16;;;;;;;6.20;5.10;;;;;;;;;;107958;273;39724;-42
2023/06/22 13:46:50;;;;;;;5.90;5.20;;;;;;;;;;108008;273;44032;-41
2023/06/22 13:49:23;;;;;;;6.40;5.20;;;;;;;;;;108038;276;42305;-40
2023/06/22 13:51:57;;;;;;;5.70;5.10;;;;;;;;;;107872;276;175352;-40
2023/06/22 13:54:30;;;;;;;6.80;5.50;;;;;;;;;;107858;278;39462;-40
2023/06/22 13:57:08;;;;;;;5.70;5.00;;;;;;;;;;108019;269;44113;-41
2023/06/22 13:59:41;;;;;;;5.90;5.20;;;;;;;;;;108041;269;42285;-40
2023/06/22 14:02:15;;;;;;;6.00;5.40;;;;;;;;;;108029;269;38749;-40
2023/06/22 14:04:49;;;;;;;5.90;5.20;;;;;;;;;;107974;276;39797;-40
2023/06/22 14:07:23;;;;;;;6.80;5.50;;;;;;;;;;107355;273;890699;-42
2023/06/22 14:09:57;;;;;;;6.00;5.40;;;;;;;;;;108023;269;41920;-40
2023/06/22 14:12:31;;;;;;;7.40;5.80;;;;;;;;;;108039;276;38943;-41
2023/06/22 14:15:06;;;;;;;6.70;5.90;;;;;;;;;;107880;271;39788;-41
2023/06/22 14:17:39;;;;;;;7.20;5.80;;;;;;;;;;108062;276;42885;-40
2023/06/22 14:20:18;;;;;;;6.60;5.70;;;;;;;;;;108022;276;42117;-40
2023/06/22 14:22:52;;;;;;;6.50;5.80;;;;;;;;;;107994;276;39969;-40
2023/06/22 14:25:25;;;;;;;6.60;5.70;;;;;;;;;;107982;269;40955;-41
2023/06/22 14:28:00;;;;;;;6.40;5.70;;;;;;;;;;107894;273;195819;-42
2023/06/22 14:30:33;;;;;;;6.80;6.00;;;;;;;;;;108008;276;42269;-41
2023/06/22 14:33:06;;;;;;;6.30;5.60;;;;;;;;;;108005;269;38971;-42
2023/06/22 14:35:40;;;;;;;7.00;6.10;;;;;;;;;;107960;276;39607;-40
2023/06/22 14:38:13;;;;;;;7.50;6.60;;;;;;;;;;108012;273;42819;-41
2023/06/22 14:40:47;;;;;;;6.70;6.00;;;;;;;;;;107988;269;42146;-40
2023/06/22 14:43:26;;;;;;;6.60;5.90;;;;;;;;;;108015;277;38853;-40
2023/06/22 14:46:00;;;;;;;6.80;6.00;;;;;;;;;;107961;276;39800;-40
2023/06/22 14:48:35;;;;;;;6.40;5.70;;;;;;;;;;108027;273;42823;-40
2023/06/22 14:51:08;;;;;;;6.80;6.00;;;;;;;;;;108022;276;42228;-40
2023/06/22 14:53:41;;;;;;;6.90;6.10;;;;;;;;;;107972;276;40024;-41
2023/06/22 14:56:15;;;;;;;6.50;5.30;;;;;;;;;;107958;269;41003;-42
2023/06/22 14:58:49;;;;;;;8.10;5.60;;;;;;;;;;107985;276;44059;-42
2023/06/22 15:01:22;;;;;;;6.20;5.40;;;;;;;;;;108023;273;41835;-41
2023/06/22 15:03:56;;;;;;;7.40;5.90;;;;;;;;;;107993;274;40010;-43
2023/06/22 15:06:31;;;;;;;6.60;5.30;;;;;;;;;;107915;273;39597;-41
2023/06/22 15:09:04;;;;;;;6.60;5.30;;;;;;;;;;107997;273;42877;-41
2023/06/22 15:11:38;;;;;;;5.90;5.10;;;;;;;;;;108043;269;42302;-39
2023/06/22 15:14:11;;;;;;;6.10;5.50;;;;;;;;;;108010;272;38933;-39